sensor_id;sensor_type;location;lat;lon;timestamp;pressure;altitude;pressure_sealevel;temperature;humidity
72157;BME280;60035;52.122;5.406;2022-12-05T00:03:45;102103.75;;;3.07;93.23
72157;BME280;60035;52.122;5.406;2022-12-05T00:06:12;102102.09;;;3.07;93.17
72157;BME280;60035;52.122;5.406;2022-12-05T00:08:38;102094.53;;;3.09;93.29
72157;BME280;60035;52.122;5.406;2022-12-05T00:11:17;102097.06;;;3.09;93.16
72157;BME280;60035;52.122;5.406;2022-12-05T00:13:44;102099.63;;;3.10;93.13
72157;BME280;60035;52.122;5.406;2022-12-05T00:16:15;102093.75;;;3.11;93.17
72157;BME280;60035;52.122;5.406;2022-12-05T00:18:41;102094.59;;;3.12;93.22
72157;BME280;60035;52.122;5.406;2022-12-05T00:21:14;102102.28;;;3.15;93.12
72157;BME280;60035;52.122;5.406;2022-12-05T00:23:40;102098.91;;;3.16;93.20
72157;BME280;60035;52.122;5.406;2022-12-05T00:26:08;102099.78;;;3.16;92.99
72157;BME280;60035;52.122;5.406;2022-12-05T00:28:38;102095.53;;;3.17;93.08
72157;BME280;60035;52.122;5.406;2022-12-05T00:31:08;102093.88;;;3.17;92.92
72157;BME280;60035;52.122;5.406;2022-12-05T00:33:35;102093.03;;;3.19;93.27
72157;BME280;60035;52.122;5.406;2022-12-05T00:36:04;102093.03;;;3.19;92.95
72157;BME280;60035;52.122;5.406;2022-12-05T00:38:30;102104.88;;;3.20;93.21
72157;BME280;60035;52.122;5.406;2022-12-05T00:41:12;102100.66;;;3.20;93.37
72157;BME280;60035;52.122;5.406;2022-12-05T00:43:39;102093.94;;;3.21;93.26
72157;BME280;60035;52.122;5.406;2022-12-05T00:46:13;102099.84;;;3.21;93.38
72157;BME280;60035;52.122;5.406;2022-12-05T00:48:40;102099.00;;;3.21;93.44
72157;BME280;60035;52.122;5.406;2022-12-05T00:51:16;102093.94;;;3.21;93.08
72157;BME280;60035;52.122;5.406;2022-12-05T00:53:45;102096.47;;;3.21;93.46
72157;BME280;60035;52.122;5.406;2022-12-05T00:56:17;102097.34;;;3.23;93.33
72157;BME280;60035;52.122;5.406;2022-12-05T00:58:45;102088.06;;;3.22;93.12
72157;BME280;60035;52.122;5.406;2022-12-05T01:01:21;102098.22;;;3.23;93.41
72157;BME280;60035;52.122;5.406;2022-12-05T01:03:51;102100.75;;;3.23;93.59
72157;BME280;60035;52.122;5.406;2022-12-05T01:06:18;102098.22;;;3.23;93.55
72157;BME280;60035;52.122;5.406;2022-12-05T01:08:45;102095.66;;;3.22;94.23
72157;BME280;60035;52.122;5.406;2022-12-05T01:11:14;102097.31;;;3.21;94.08
72157;BME280;60035;52.122;5.406;2022-12-05T01:13:41;102090.59;;;3.22;94.18
72157;BME280;60035;52.122;5.406;2022-12-05T01:16:38;102097.34;;;3.23;94.37
72157;BME280;60035;52.122;5.406;2022-12-05T01:19:09;102094.88;;;3.24;94.30
72157;BME280;60035;52.122;5.406;2022-12-05T01:21:36;102101.59;;;3.24;94.62
72157;BME280;60035;52.122;5.406;2022-12-05T01:24:03;102090.63;;;3.23;94.98
72157;BME280;60035;52.122;5.406;2022-12-05T01:26:30;102105.00;;;3.24;94.47
72157;BME280;60035;52.122;5.406;2022-12-05T01:28:56;102103.31;;;3.25;94.95
72157;BME280;60035;52.122;5.406;2022-12-05T01:31:32;102097.31;;;3.21;95.14
72157;BME280;60035;52.122;5.406;2022-12-05T01:34:02;102105.78;;;3.22;95.24
72157;BME280;60035;52.122;5.406;2022-12-05T01:36:29;102104.09;;;3.22;95.58
72157;BME280;60035;52.122;5.406;2022-12-05T01:38:56;102110.00;;;3.23;95.40
72157;BME280;60035;52.122;5.406;2022-12-05T01:41:29;102105.81;;;3.23;95.81
72157;BME280;60035;52.122;5.406;2022-12-05T01:46:33;102097.34;;;3.23;95.99
72157;BME280;60035;52.122;5.406;2022-12-05T01:49:09;102107.47;;;3.23;96.34
72157;BME280;60035;52.122;5.406;2022-12-05T01:51:39;102105.81;;;3.23;96.02
72157;BME280;60035;52.122;5.406;2022-12-05T01:54:07;102113.44;;;3.25;96.29
72157;BME280;60035;52.122;5.406;2022-12-05T01:56:35;102105.84;;;3.25;96.13
72157;BME280;60035;52.122;5.406;2022-12-05T01:59:04;102106.69;;;3.25;96.47
72157;BME280;60035;52.122;5.406;2022-12-05T02:01:33;102105.00;;;3.24;96.69
72157;BME280;60035;52.122;5.406;2022-12-05T02:04:01;102110.06;;;3.24;96.61
72157;BME280;60035;52.122;5.406;2022-12-05T02:06:28;102113.44;;;3.25;96.79
72157;BME280;60035;52.122;5.406;2022-12-05T02:08:55;102108.41;;;3.26;96.70
72157;BME280;60035;52.122;5.406;2022-12-05T02:11:23;102104.22;;;3.27;96.98
72157;BME280;60035;52.122;5.406;2022-12-05T02:14:12;102107.59;;;3.29;97.13
72157;BME280;60035;52.122;5.406;2022-12-05T02:17:07;102105.91;;;3.28;97.17
72157;BME280;60035;52.122;5.406;2022-12-05T02:25:49;102099.19;;;3.30;97.57
72157;BME280;60035;52.122;5.406;2022-12-05T02:30:58;102098.38;;;3.31;97.60
72157;BME280;60035;52.122;5.406;2022-12-05T02:33:37;102095.00;;;3.32;97.93
72157;BME280;60035;52.122;5.406;2022-12-05T02:36:11;102098.41;;;3.32;97.95
72157;BME280;60035;52.122;5.406;2022-12-05T02:38:57;102105.19;;;3.33;97.91
72157;BME280;60035;52.122;5.406;2022-12-05T02:45:02;102098.47;;;3.36;98.15
72157;BME280;60035;52.122;5.406;2022-12-05T02:47:08;102101.00;;;3.36;98.16
72157;BME280;60035;52.122;5.406;2022-12-05T02:49:39;102104.41;;;3.36;97.79
72157;BME280;60035;52.122;5.406;2022-12-05T02:52:11;102098.50;;;3.37;98.40
72157;BME280;60035;52.122;5.406;2022-12-05T02:54:41;102095.97;;;3.37;98.27
72157;BME280;60035;52.122;5.406;2022-12-05T02:57:09;102090.91;;;3.39;98.45
72157;BME280;60035;52.122;5.406;2022-12-05T02:59:36;102086.75;;;3.41;98.36
72157;BME280;60035;52.122;5.406;2022-12-05T03:02:03;102090.22;;;3.44;98.45
72157;BME280;60035;52.122;5.406;2022-12-05T03:04:30;102096.16;;;3.46;98.57
72157;BME280;60035;52.122;5.406;2022-12-05T03:07:09;102094.50;;;3.47;98.57
72157;BME280;60035;52.122;5.406;2022-12-05T03:09:46;102094.50;;;3.48;98.55
72157;BME280;60035;52.122;5.406;2022-12-05T03:12:19;102092.81;;;3.49;98.49
72157;BME280;60035;52.122;5.406;2022-12-05T03:14:55;102100.44;;;3.50;98.56
72157;BME280;60035;52.122;5.406;2022-12-05T03:17:25;102098.78;;;3.51;98.23
72157;BME280;60035;52.122;5.406;2022-12-05T03:20:08;102103.88;;;3.53;98.37
72157;BME280;60035;52.122;5.406;2022-12-05T03:22:57;102098.00;;;3.54;98.26
72157;BME280;60035;52.122;5.406;2022-12-05T03:25:34;102096.31;;;3.54;98.46
72157;BME280;60035;52.122;5.406;2022-12-05T03:28:08;102103.13;;;3.57;98.52
72157;BME280;60035;52.122;5.406;2022-12-05T03:30:41;102098.91;;;3.57;98.27
72157;BME280;60035;52.122;5.406;2022-12-05T03:33:12;102098.91;;;3.57;98.27
72157;BME280;60035;52.122;5.406;2022-12-05T03:35:50;102110.75;;;3.58;98.52
72157;BME280;60035;52.122;5.406;2022-12-05T03:38:38;102106.56;;;3.60;98.21
72157;BME280;60035;52.122;5.406;2022-12-05T03:41:11;102113.34;;;3.61;98.36
72157;BME280;60035;52.122;5.406;2022-12-05T03:44:17;102112.47;;;3.61;98.44
72157;BME280;60035;52.122;5.406;2022-12-05T03:46:53;102113.38;;;3.63;98.09
72157;BME280;60035;52.122;5.406;2022-12-05T03:49:28;102106.63;;;3.63;98.12
72157;BME280;60035;52.122;5.406;2022-12-05T03:52:07;102118.47;;;3.64;98.24
72157;BME280;60035;52.122;5.406;2022-12-05T03:54:44;102116.75;;;3.63;98.03
72157;BME280;60035;52.122;5.406;2022-12-05T03:57:22;102115.97;;;3.66;98.28
72157;BME280;60035;52.122;5.406;2022-12-05T03:59:55;102123.59;;;3.67;97.97
72157;BME280;60035;52.122;5.406;2022-12-05T04:02:29;102121.03;;;3.66;97.91
72157;BME280;60035;52.122;5.406;2022-12-05T04:05:03;102132.06;;;3.68;98.29
72157;BME280;60035;52.122;5.406;2022-12-05T04:07:34;102124.47;;;3.68;98.24
72157;BME280;60035;52.122;5.406;2022-12-05T04:10:06;102127.84;;;3.69;98.24
72157;BME280;60035;52.122;5.406;2022-12-05T04:12:36;102130.38;;;3.70;98.39
72157;BME280;60035;52.122;5.406;2022-12-05T04:15:09;102127.00;;;3.70;97.98
72157;BME280;60035;52.122;5.406;2022-12-05T04:17:57;102129.53;;;3.70;98.33
72157;BME280;60035;52.122;5.406;2022-12-05T04:20:39;102125.31;;;3.70;98.23
72157;BME280;60035;52.122;5.406;2022-12-05T04:23:25;102123.66;;;3.71;98.18
72157;BME280;60035;52.122;5.406;2022-12-05T04:31:09;102117.72;;;3.70;98.27
72157;BME280;60035;52.122;5.406;2022-12-05T04:36:13;102113.47;;;3.69;98.19
72157;BME280;60035;52.122;5.406;2022-12-05T04:38:54;102119.41;;;3.70;98.38
72157;BME280;60035;52.122;5.406;2022-12-05T04:41:37;102111.81;;;3.70;98.81
72157;BME280;60035;52.122;5.406;2022-12-05T04:44:07;102118.53;;;3.67;98.73
72157;BME280;60035;52.122;5.406;2022-12-05T04:46:35;102118.53;;;3.69;98.66
72157;BME280;60035;52.122;5.406;2022-12-05T04:49:07;102124.47;;;3.68;99.02
72157;BME280;60035;52.122;5.406;2022-12-05T04:51:36;102116.84;;;3.68;98.84
72157;BME280;60035;52.122;5.406;2022-12-05T04:54:12;102120.22;;;3.69;98.87
72157;BME280;60035;52.122;5.406;2022-12-05T04:56:42;102120.25;;;3.70;99.21
72157;BME280;60035;52.122;5.406;2022-12-05T04:59:12;102128.66;;;3.69;99.07
72157;BME280;60035;52.122;5.406;2022-12-05T05:01:49;102122.81;;;3.72;99.36
72157;BME280;60035;52.122;5.406;2022-12-05T05:04:34;102118.63;;;3.72;99.21
72157;BME280;60035;52.122;5.406;2022-12-05T05:07:09;102117.81;;;3.75;99.13
72157;BME280;60035;52.122;5.406;2022-12-05T05:09:37;102116.97;;;3.74;99.73
72157;BME280;60035;52.122;5.406;2022-12-05T05:12:04;102112.75;;;3.75;99.53
72157;BME280;60035;52.122;5.406;2022-12-05T05:14:31;102116.13;;;3.75;99.60
72157;BME280;60035;52.122;5.406;2022-12-05T05:16:59;102121.22;;;3.77;99.49
72157;BME280;60035;52.122;5.406;2022-12-05T05:19:25;102117.84;;;3.76;99.48
72157;BME280;60035;52.122;5.406;2022-12-05T05:21:52;102121.28;;;3.78;99.88
72157;BME280;60035;52.122;5.406;2022-12-05T05:24:19;102122.16;;;3.80;99.98
72157;BME280;60035;52.122;5.406;2022-12-05T05:26:47;102127.19;;;3.79;99.79
72157;BME280;60035;52.122;5.406;2022-12-05T05:29:20;102125.53;;;3.81;100.00
72157;BME280;60035;52.122;5.406;2022-12-05T05:31:47;102128.06;;;3.81;99.92
72157;BME280;60035;52.122;5.406;2022-12-05T05:34:13;102127.25;;;3.83;99.90
72157;BME280;60035;52.122;5.406;2022-12-05T05:36:43;102125.63;;;3.86;100.00
72157;BME280;60035;52.122;5.406;2022-12-05T05:39:12;102120.56;;;3.86;100.00
72157;BME280;60035;52.122;5.406;2022-12-05T05:41:39;102119.75;;;3.87;99.92
72157;BME280;60035;52.122;5.406;2022-12-05T05:44:06;102128.22;;;3.89;100.00
72157;BME280;60035;52.122;5.406;2022-12-05T05:46:34;102134.19;;;3.91;100.00
72157;BME280;60035;52.122;5.406;2022-12-05T05:49:01;102124.88;;;3.91;100.00
72157;BME280;60035;52.122;5.406;2022-12-05T05:51:28;102125.78;;;3.93;100.00
72157;BME280;60035;52.122;5.406;2022-12-05T05:53:57;102120.72;;;3.95;100.00
72157;BME280;60035;52.122;5.406;2022-12-05T05:56:24;102116.56;;;3.97;100.00
72157;BME280;60035;52.122;5.406;2022-12-05T05:58:59;102117.44;;;3.99;100.00
72157;BME280;60035;52.122;5.406;2022-12-05T06:01:27;102119.97;;;3.99;100.00
72157;BME280;60035;52.122;5.406;2022-12-05T06:03:54;102115.75;;;3.99;100.00
72157;BME280;60035;52.122;5.406;2022-12-05T06:06:21;102119.16;;;4.00;100.00
72157;BME280;60035;52.122;5.406;2022-12-05T06:08:48;102119.19;;;4.03;100.00
72157;BME280;60035;52.122;5.406;2022-12-05T06:11:20;102125.13;;;4.04;100.00
72157;BME280;60035;52.122;5.406;2022-12-05T06:13:56;102112.47;;;4.05;100.00
72157;BME280;60035;52.122;5.406;2022-12-05T06:16:23;102116.75;;;4.08;100.00
72157;BME280;60035;52.122;5.406;2022-12-05T06:18:50;102121.84;;;4.09;100.00
72157;BME280;60035;52.122;5.406;2022-12-05T06:21:17;102121.84;;;4.09;100.00
72157;BME280;60035;52.122;5.406;2022-12-05T06:23:43;102120.19;;;4.11;100.00
72157;BME280;60035;52.122;5.406;2022-12-05T06:26:12;102122.78;;;4.13;100.00
72157;BME280;60035;52.122;5.406;2022-12-05T06:28:40;102120.25;;;4.14;100.00
72157;BME280;60035;52.122;5.406;2022-12-05T06:31:12;102128.69;;;4.15;100.00
72157;BME280;60035;52.122;5.406;2022-12-05T06:33:40;102123.72;;;4.18;100.00
72157;BME280;60035;52.122;5.406;2022-12-05T06:36:09;102129.63;;;4.19;100.00
72157;BME280;60035;52.122;5.406;2022-12-05T06:38:36;102126.25;;;4.20;100.00
72157;BME280;60035;52.122;5.406;2022-12-05T06:41:11;102127.94;;;4.21;100.00
72157;BME280;60035;52.122;5.406;2022-12-05T06:43:42;102132.22;;;4.23;100.00
72157;BME280;60035;52.122;5.406;2022-12-05T06:46:10;102133.94;;;4.24;100.00
72157;BME280;60035;52.122;5.406;2022-12-05T06:48:38;102139.91;;;4.26;100.00
72157;BME280;60035;52.122;5.406;2022-12-05T06:51:08;102137.38;;;4.28;100.00
72157;BME280;60035;52.122;5.406;2022-12-05T06:53:35;102148.38;;;4.30;100.00
72157;BME280;60035;52.122;5.406;2022-12-05T06:56:04;102145.03;;;4.31;100.00
72157;BME280;60035;52.122;5.406;2022-12-05T06:58:32;102141.69;;;4.32;100.00
72157;BME280;60035;52.122;5.406;2022-12-05T07:00:59;102148.47;;;4.33;100.00
72157;BME280;60035;52.122;5.406;2022-12-05T07:03:44;102143.41;;;4.33;100.00
72157;BME280;60035;52.122;5.406;2022-12-05T07:06:14;102147.66;;;4.36;100.00
72157;BME280;60035;52.122;5.406;2022-12-05T07:08:42;102144.25;;;4.35;100.00
72157;BME280;60035;52.122;5.406;2022-12-05T07:11:08;102155.28;;;4.36;100.00
72157;BME280;60035;52.122;5.406;2022-12-05T07:13:35;102150.25;;;4.39;100.00
72157;BME280;60035;52.122;5.406;2022-12-05T07:16:02;102150.25;;;4.39;100.00
72157;BME280;60035;52.122;5.406;2022-12-05T07:18:32;102150.25;;;4.40;100.00
72157;BME280;60035;52.122;5.406;2022-12-05T07:21:01;102151.13;;;4.41;100.00
72157;BME280;60035;52.122;5.406;2022-12-05T07:23:38;102156.22;;;4.42;100.00
72157;BME280;60035;52.122;5.406;2022-12-05T07:26:05;102159.63;;;4.43;100.00
72157;BME280;60035;52.122;5.406;2022-12-05T07:28:32;102158.78;;;4.42;100.00
72157;BME280;60035;52.122;5.406;2022-12-05T07:31:09;102162.16;;;4.44;100.00
72157;BME280;60035;52.122;5.406;2022-12-05T07:33:36;102161.34;;;4.45;100.00
72157;BME280;60035;52.122;5.406;2022-12-05T07:36:06;102171.50;;;4.45;100.00
72157;BME280;60035;52.122;5.406;2022-12-05T07:38:34;102163.06;;;4.46;100.00
72157;BME280;60035;52.122;5.406;2022-12-05T07:41:05;102163.09;;;4.48;100.00
72157;BME280;60035;52.122;5.406;2022-12-05T07:43:39;102166.47;;;4.48;100.00
72157;BME280;60035;52.122;5.406;2022-12-05T07:46:06;102175.78;;;4.49;100.00
72157;BME280;60035;52.122;5.406;2022-12-05T07:48:34;102172.44;;;4.50;100.00
72157;BME280;60035;52.122;5.406;2022-12-05T07:51:03;102176.69;;;4.52;100.00
72157;BME280;60035;52.122;5.406;2022-12-05T07:53:31;102183.47;;;4.53;100.00
72157;BME280;60035;52.122;5.406;2022-12-05T07:56:02;102177.53;;;4.54;100.00
72157;BME280;60035;52.122;5.406;2022-12-05T07:58:31;102180.13;;;4.55;100.00
72157;BME280;60035;52.122;5.406;2022-12-05T08:01:08;102183.50;;;4.56;100.00
72157;BME280;60035;52.122;5.406;2022-12-05T08:03:36;102186.06;;;4.56;100.00
72157;BME280;60035;52.122;5.406;2022-12-05T08:06:04;102185.25;;;4.58;100.00
72157;BME280;60035;52.122;5.406;2022-12-05T08:08:31;102184.41;;;4.58;100.00
72157;BME280;60035;52.122;5.406;2022-12-05T08:11:10;102192.88;;;4.60;100.00
72157;BME280;60035;52.122;5.406;2022-12-05T08:13:37;102192.06;;;4.61;100.00
72157;BME280;60035;52.122;5.406;2022-12-05T08:16:06;102185.28;;;4.61;100.00
72157;BME280;60035;52.122;5.406;2022-12-05T08:18:33;102189.53;;;4.62;100.00
72157;BME280;60035;52.122;5.406;2022-12-05T08:21:04;102194.63;;;4.64;100.00
72157;BME280;60035;52.122;5.406;2022-12-05T08:23:31;102197.19;;;4.65;100.00
72157;BME280;60035;52.122;5.406;2022-12-05T08:26:07;102195.56;;;4.67;100.00
72157;BME280;60035;52.122;5.406;2022-12-05T08:28:35;102198.94;;;4.68;100.00
72157;BME280;60035;52.122;5.406;2022-12-05T08:31:10;102204.88;;;4.69;100.00
72157;BME280;60035;52.122;5.406;2022-12-05T08:33:37;102196.41;;;4.70;100.00
72157;BME280;60035;52.122;5.406;2022-12-05T08:36:06;102209.16;;;4.71;100.00
72157;BME280;60035;52.122;5.406;2022-12-05T08:38:34;102200.69;;;4.72;100.00
72157;BME280;60035;52.122;5.406;2022-12-05T08:41:01;102206.63;;;4.73;100.00
72157;BME280;60035;52.122;5.406;2022-12-05T08:43:29;102204.13;;;4.74;100.00
72157;BME280;60035;52.122;5.406;2022-12-05T08:45:56;102206.66;;;4.74;100.00
72157;BME280;60035;52.122;5.406;2022-12-05T08:48:23;102208.41;;;4.77;100.00
72157;BME280;60035;52.122;5.406;2022-12-05T08:50:54;102210.09;;;4.78;100.00
72157;BME280;60035;52.122;5.406;2022-12-05T08:53:21;102210.94;;;4.78;100.00
72157;BME280;60035;52.122;5.406;2022-12-05T08:55:50;102216.91;;;4.80;100.00
72157;BME280;60035;52.122;5.406;2022-12-05T08:58:17;102218.66;;;4.83;100.00
72157;BME280;60035;52.122;5.406;2022-12-05T09:00:44;102219.50;;;4.83;100.00
72157;BME280;60035;52.122;5.406;2022-12-05T09:03:10;102221.25;;;4.86;100.00
72157;BME280;60035;52.122;5.406;2022-12-05T09:05:37;102228.88;;;4.88;100.00
72157;BME280;60035;52.122;5.406;2022-12-05T09:08:04;102228.88;;;4.88;100.00
72157;BME280;60035;52.122;5.406;2022-12-05T09:10:31;102228.88;;;4.88;100.00
72157;BME280;60035;52.122;5.406;2022-12-05T09:12:57;102233.13;;;4.89;100.00
72157;BME280;60035;52.122;5.406;2022-12-05T09:15:24;102229.75;;;4.90;100.00
72157;BME280;60035;52.122;5.406;2022-12-05T09:17:50;102234.84;;;4.91;100.00
72157;BME280;60035;52.122;5.406;2022-12-05T09:20:17;102223.00;;;4.90;100.00
72157;BME280;60035;52.122;5.406;2022-12-05T09:22:44;102222.19;;;4.93;100.00
72157;BME280;60035;52.122;5.406;2022-12-05T09:25:10;102234.88;;;4.93;100.00
72157;BME280;60035;52.122;5.406;2022-12-05T09:27:37;102234.88;;;4.93;100.00
72157;BME280;60035;52.122;5.406;2022-12-05T09:30:07;102232.34;;;4.93;100.00
72157;BME280;60035;52.122;5.406;2022-12-05T09:32:34;102234.91;;;4.96;100.00
72157;BME280;60035;52.122;5.406;2022-12-05T09:35:01;102239.19;;;4.98;100.00
72157;BME280;60035;52.122;5.406;2022-12-05T09:37:27;102238.38;;;4.99;100.00
72157;BME280;60035;52.122;5.406;2022-12-05T09:40:06;102243.47;;;5.01;100.00
72157;BME280;60035;52.122;5.406;2022-12-05T09:42:38;102246.91;;;5.03;100.00
72157;BME280;60035;52.122;5.406;2022-12-05T09:45:21;102240.13;;;5.04;99.99
72157;BME280;60035;52.122;5.406;2022-12-05T09:47:58;102252.00;;;5.05;100.00
72157;BME280;60035;52.122;5.406;2022-12-05T09:50:32;102249.47;;;5.05;100.00
72157;BME280;60035;52.122;5.406;2022-12-05T09:53:06;102245.28;;;5.07;99.87
72157;BME280;60035;52.122;5.406;2022-12-05T09:58:32;102249.50;;;5.08;99.72
72157;BME280;60035;52.122;5.406;2022-12-05T10:06:28;102247.84;;;5.10;99.80
72157;BME280;60035;52.122;5.406;2022-12-05T10:09:13;102241.06;;;5.10;99.87
72157;BME280;60035;52.122;5.406;2022-12-05T10:11:57;102250.44;;;5.13;99.79
72157;BME280;60035;52.122;5.406;2022-12-05T10:14:51;102246.22;;;5.13;99.38
72157;BME280;60035;52.122;5.406;2022-12-05T10:19:48;102252.16;;;5.15;99.55
72157;BME280;60035;52.122;5.406;2022-12-05T10:22:51;102244.53;;;5.15;99.66
72157;BME280;60035;52.122;5.406;2022-12-05T10:25:21;102252.19;;;5.17;99.63
72157;BME280;60035;52.122;5.406;2022-12-05T10:27:52;102244.59;;;5.18;99.50
72157;BME280;60035;52.122;5.406;2022-12-05T10:30:22;102238.69;;;5.21;99.15
72157;BME280;60035;52.122;5.406;2022-12-05T10:32:55;102244.66;;;5.22;99.50
72157;BME280;60035;52.122;5.406;2022-12-05T10:35:24;102241.22;;;5.20;99.31
72157;BME280;60035;52.122;5.406;2022-12-05T10:38:30;102243.78;;;5.21;99.37
72157;BME280;60035;52.122;5.406;2022-12-05T10:41:02;102241.28;;;5.23;99.02
72157;BME280;60035;52.122;5.406;2022-12-05T10:43:31;102233.69;;;5.24;99.25
72157;BME280;60035;52.122;5.406;2022-12-05T10:45:59;102240.47;;;5.25;99.39
72157;BME280;60035;52.122;5.406;2022-12-05T10:48:28;102237.97;;;5.27;99.47
72157;BME280;60035;52.122;5.406;2022-12-05T10:50:57;102241.34;;;5.27;99.47
72157;BME280;60035;52.122;5.406;2022-12-05T10:53:31;102231.19;;;5.27;99.72
72157;BME280;60035;52.122;5.406;2022-12-05T10:56:02;102238.00;;;5.30;99.77
72157;BME280;60035;52.122;5.406;2022-12-05T10:58:57;102232.91;;;5.30;99.84
72157;BME280;60035;52.122;5.406;2022-12-05T11:01:26;102225.31;;;5.31;99.80
72157;BME280;60035;52.122;5.406;2022-12-05T11:03:59;102223.66;;;5.33;99.88
72157;BME280;60035;52.122;5.406;2022-12-05T11:06:28;102227.88;;;5.33;99.82
72157;BME280;60035;52.122;5.406;2022-12-05T11:14:25;102236.34;;;5.32;100.00
72157;BME280;60035;52.122;5.406;2022-12-05T11:16:54;102227.03;;;5.32;100.00
72157;BME280;60035;52.122;5.406;2022-12-05T11:21:48;102232.09;;;5.32;100.00
72157;BME280;60035;52.122;5.406;2022-12-05T11:26:51;102232.09;;;5.31;100.00
72157;BME280;60035;52.122;5.406;2022-12-05T11:29:38;102223.59;;;5.30;100.00
72157;BME280;60035;52.122;5.406;2022-12-05T11:32:16;102230.41;;;5.33;100.00
72157;BME280;60035;52.122;5.406;2022-12-05T11:34:49;102222.78;;;5.33;100.00
72157;BME280;60035;52.122;5.406;2022-12-05T11:37:42;102227.91;;;5.34;100.00
72157;BME280;60035;52.122;5.406;2022-12-05T11:40:16;102226.25;;;5.37;100.00
72157;BME280;60035;52.122;5.406;2022-12-05T11:53:07;102230.50;;;5.39;100.00
72157;BME280;60035;52.122;5.406;2022-12-05T11:55:55;102223.78;;;5.41;100.00
72157;BME280;60035;52.122;5.406;2022-12-05T12:07:02;102233.09;;;5.42;100.00
72157;BME280;60035;52.122;5.406;2022-12-05T12:09:43;102225.44;;;5.41;100.00
72157;BME280;60035;52.122;5.406;2022-12-05T12:15:22;102230.59;;;5.44;100.00
72157;BME280;60035;52.122;5.406;2022-12-05T12:18:00;102228.91;;;5.44;100.00
72157;BME280;60035;52.122;5.406;2022-12-05T12:20:40;102232.28;;;5.45;100.00
72157;BME280;60035;52.122;5.406;2022-12-05T12:26:14;102217.91;;;5.45;100.00
72157;BME280;60035;52.122;5.406;2022-12-05T12:37:04;102223.88;;;5.49;100.00
72157;BME280;60035;52.122;5.406;2022-12-05T12:39:58;102212.06;;;5.51;100.00
72157;BME280;60035;52.122;5.406;2022-12-05T12:48:15;102215.38;;;5.47;100.00
72157;BME280;60035;52.122;5.406;2022-12-05T12:50:50;102210.28;;;5.45;100.00
72157;BME280;60035;52.122;5.406;2022-12-05T12:56:02;102206.03;;;5.44;100.00
72157;BME280;60035;52.122;5.406;2022-12-05T13:01:45;102196.69;;;5.43;100.00
72157;BME280;60035;52.122;5.406;2022-12-05T13:04:18;102205.22;;;5.45;100.00
72157;BME280;60035;52.122;5.406;2022-12-05T13:06:58;102194.22;;;5.46;100.00
72157;BME280;60035;52.122;5.406;2022-12-05T13:09:37;102190.81;;;5.47;100.00
72157;BME280;60035;52.122;5.406;2022-12-05T13:12:20;102201.84;;;5.48;100.00
72157;BME280;60035;52.122;5.406;2022-12-05T13:14:51;102196.75;;;5.46;100.00
72157;BME280;60035;52.122;5.406;2022-12-05T13:17:21;102192.50;;;5.45;100.00
72157;BME280;60035;52.122;5.406;2022-12-05T13:19:50;102198.44;;;5.46;100.00
72157;BME280;60035;52.122;5.406;2022-12-05T13:22:19;102201.78;;;5.43;100.00
72157;BME280;60035;52.122;5.406;2022-12-05T13:24:52;102204.31;;;5.43;100.00
72157;BME280;60035;52.122;5.406;2022-12-05T13:27:24;102208.56;;;5.44;100.00
72157;BME280;60035;52.122;5.406;2022-12-05T13:29:59;102201.78;;;5.43;100.00
72157;BME280;60035;52.122;5.406;2022-12-05T13:32:33;102201.75;;;5.42;100.00
72157;BME280;60035;52.122;5.406;2022-12-05T13:35:27;102199.19;;;5.39;100.00
72157;BME280;60035;52.122;5.406;2022-12-05T13:38:30;102196.56;;;5.34;100.00
72157;BME280;60035;52.122;5.406;2022-12-05T13:41:17;102199.09;;;5.34;100.00
72157;BME280;60035;52.122;5.406;2022-12-05T13:44:03;102199.94;;;5.33;100.00
72157;BME280;60035;52.122;5.406;2022-12-05T13:46:40;102207.53;;;5.31;100.00
72157;BME280;60035;52.122;5.406;2022-12-05T13:49:46;102212.59;;;5.30;100.00
72157;BME280;60035;52.122;5.406;2022-12-05T13:52:18;102208.34;;;5.29;100.00
72157;BME280;60035;52.122;5.406;2022-12-05T13:55:35;102210.84;;;5.26;100.00
72157;BME280;60035;52.122;5.406;2022-12-05T14:00:44;102206.59;;;5.25;100.00
72157;BME280;60035;52.122;5.406;2022-12-05T14:06:05;102210.81;;;5.23;100.00
72157;BME280;60035;52.122;5.406;2022-12-05T14:11:08;102204.03;;;5.22;100.00
72157;BME280;60035;52.122;5.406;2022-12-05T14:13:40;102207.41;;;5.22;100.00
72157;BME280;60035;52.122;5.406;2022-12-05T14:21:45;102214.13;;;5.18;100.00
72157;BME280;60035;52.122;5.406;2022-12-05T14:24:31;102209.03;;;5.18;100.00
72157;BME280;60035;52.122;5.406;2022-12-05T14:30:04;102207.38;;;5.21;100.00
72157;BME280;60035;52.122;5.406;2022-12-05T14:32:37;102209.09;;;5.22;100.00
72157;BME280;60035;52.122;5.406;2022-12-05T14:35:15;102209.94;;;5.22;100.00
72157;BME280;60035;52.122;5.406;2022-12-05T14:43:28;102215.91;;;5.23;100.00
72157;BME280;60035;52.122;5.406;2022-12-05T14:45:57;102215.94;;;5.26;100.00
72157;BME280;60035;52.122;5.406;2022-12-05T14:48:54;102218.47;;;5.26;100.00
72157;BME280;60035;52.122;5.406;2022-12-05T14:51:42;102221.84;;;5.25;100.00
72157;BME280;60035;52.122;5.406;2022-12-05T14:54:14;102224.38;;;5.25;100.00
72157;BME280;60035;52.122;5.406;2022-12-05T14:56:43;102219.28;;;5.25;100.00
72157;BME280;60035;52.122;5.406;2022-12-05T14:59:31;102231.16;;;5.26;100.00
72157;BME280;60035;52.122;5.406;2022-12-05T15:02:02;102229.44;;;5.25;100.00
72157;BME280;60035;52.122;5.406;2022-12-05T15:04:45;102229.44;;;5.25;100.00
72157;BME280;60035;52.122;5.406;2022-12-05T15:07:18;102227.72;;;5.24;100.00
72157;BME280;60035;52.122;5.406;2022-12-05T15:12:38;102243.81;;;5.23;100.00
72157;BME280;60035;52.122;5.406;2022-12-05T15:15:30;102233.66;;;5.23;100.00
72157;BME280;60035;52.122;5.406;2022-12-05T15:18:08;102239.56;;;5.22;100.00
72157;BME280;60035;52.122;5.406;2022-12-05T15:20:43;102238.69;;;5.20;100.00